createdAt,value
2017-12-13T00:00:34.772Z,80.15
2017-12-13T00:03:03.251Z,80.33
2017-12-13T00:05:31.666Z,80.18
2017-12-13T00:08:00.080Z,79.45
2017-12-13T00:10:28.465Z,79.25
2017-12-13T00:12:56.826Z,79.81
2017-12-13T00:15:25.187Z,79.42
2017-12-13T00:17:54.304Z,79.76
2017-12-13T00:20:23.090Z,79.23
2017-12-13T00:22:51.471Z,79.28
2017-12-13T00:25:19.900Z,79.40
2017-12-13T00:27:48.387Z,78.34
2017-12-13T00:30:16.840Z,78.01
2017-12-13T00:32:45.285Z,78.55
2017-12-13T00:35:13.737Z,77.91
2017-12-13T00:37:42.330Z,77.63
2017-12-13T00:40:11.855Z,78.94
2017-12-13T00:42:40.752Z,79.00
2017-12-13T00:45:09.535Z,78.88
2017-12-13T00:47:38.072Z,78.29
2017-12-13T00:50:10.365Z,78.14
2017-12-13T00:52:38.812Z,78.31
2017-12-13T00:55:07.324Z,78.10
2017-12-13T00:57:35.822Z,78.41
2017-12-13T01:00:05.211Z,78.84
2017-12-13T01:02:34.576Z,77.84
2017-12-13T01:05:03.298Z,77.77
2017-12-13T01:07:31.890Z,78.05
2017-12-13T01:10:01.111Z,77.75
2017-12-13T01:12:29.562Z,76.93
2017-12-13T01:14:58.042Z,76.10
2017-12-13T01:17:26.480Z,76.00
2017-12-13T01:19:55.669Z,76.96
2017-12-13T01:22:24.102Z,79.38
2017-12-13T01:24:52.585Z,78.56
2017-12-13T01:27:22.138Z,79.02
2017-12-13T01:29:50.520Z,78.65
2017-12-13T01:32:19.038Z,78.39
2017-12-13T01:34:47.537Z,77.81
2017-12-13T01:37:15.914Z,78.76
2017-12-13T01:39:44.349Z,77.94
2017-12-13T01:42:12.878Z,77.48
2017-12-13T01:44:41.341Z,78.20
2017-12-13T01:47:10.502Z,78.11
2017-12-13T01:49:38.999Z,77.76
2017-12-13T01:52:07.500Z,77.23
2017-12-13T01:54:35.904Z,77.81
2017-12-13T01:57:04.493Z,77.58
2017-12-13T01:59:32.997Z,76.66
2017-12-13T02:02:01.486Z,76.89
2017-12-13T02:04:29.914Z,76.16
2017-12-13T02:06:58.386Z,75.10
2017-12-13T02:09:26.829Z,75.23
2017-12-13T02:11:55.499Z,75.56
2017-12-13T02:14:24.783Z,75.12
2017-12-13T02:16:53.160Z,74.71
2017-12-13T02:19:21.663Z,74.06
2017-12-13T02:21:50.117Z,74.21
2017-12-13T02:24:18.611Z,73.68
2017-12-13T02:26:47.027Z,73.47
2017-12-13T02:29:15.551Z,74.37
2017-12-13T02:31:43.962Z,75.37
2017-12-13T02:34:13.742Z,74.28
2017-12-13T02:36:42.261Z,75.42
2017-12-13T02:39:10.645Z,75.60
2017-12-13T02:41:39.931Z,76.40
2017-12-13T02:44:08.377Z,77.05
2017-12-13T02:46:37.614Z,76.71
2017-12-13T02:49:06.087Z,76.36
2017-12-13T02:51:34.500Z,77.02
2017-12-13T02:54:02.902Z,77.02
2017-12-13T02:56:31.855Z,77.76
2017-12-13T02:59:01.001Z,78.18
2017-12-13T03:01:29.525Z,78.92
2017-12-13T03:03:57.981Z,79.28
2017-12-13T03:06:26.488Z,79.20
2017-12-13T03:08:54.969Z,78.99
2017-12-13T03:11:23.605Z,79.46
2017-12-13T03:13:52.138Z,79.22
2017-12-13T03:16:20.523Z,78.41
2017-12-13T03:18:50.227Z,79.35
2017-12-13T03:21:18.702Z,79.56
2017-12-13T03:23:47.177Z,79.53
2017-12-13T03:26:15.773Z,79.25
2017-12-13T03:28:44.277Z,78.37
2017-12-13T03:31:12.629Z,79.17
2017-12-13T03:33:42.140Z,79.38
2017-12-13T03:36:10.624Z,79.70
2017-12-13T03:38:39.107Z,79.59
2017-12-13T03:41:07.617Z,79.72
2017-12-13T03:43:36.863Z,79.88
2017-12-13T03:46:05.269Z,79.81
2017-12-13T03:48:34.578Z,80.48
2017-12-13T03:51:03.036Z,80.76
2017-12-13T03:53:31.531Z,81.37
2017-12-13T03:56:00.119Z,81.23
2017-12-13T03:58:28.585Z,81.03
2017-12-13T04:00:57.128Z,81.59
2017-12-13T04:03:25.870Z,81.88
2017-12-13T04:05:54.271Z,81.39
2017-12-13T04:08:23.528Z,81.56
2017-12-13T04:10:52.074Z,82.22
2017-12-13T04:13:20.538Z,82.20
2017-12-13T04:15:49.852Z,81.35
2017-12-13T04:18:18.331Z,80.69
2017-12-13T04:20:48.426Z,80.58
2017-12-13T04:23:17.619Z,80.20
2017-12-13T04:25:46.462Z,79.94
2017-12-13T04:28:14.993Z,80.96
2017-12-13T04:30:43.438Z,80.60
2017-12-13T04:33:12.069Z,81.03
2017-12-13T04:35:41.292Z,81.23
2017-12-13T04:38:09.836Z,81.50
2017-12-13T04:40:39.140Z,81.38
2017-12-13T04:43:08.440Z,81.09
2017-12-13T04:45:37.651Z,81.32
2017-12-13T04:48:07.298Z,80.94
2017-12-13T04:50:35.711Z,80.65
2017-12-13T04:53:04.192Z,81.21
2017-12-13T04:55:32.792Z,80.78
2017-12-13T04:58:01.202Z,81.37
2017-12-13T05:00:30.475Z,81.05
2017-12-13T05:02:58.971Z,80.40
2017-12-13T05:05:28.224Z,80.67
2017-12-13T05:07:56.742Z,81.13
2017-12-13T05:10:26.453Z,81.09
2017-12-13T05:12:55.073Z,80.47
2017-12-13T05:15:23.514Z,80.31
2017-12-13T05:17:51.996Z,79.92
2017-12-13T05:20:20.394Z,81.15
2017-12-13T05:22:49.543Z,80.78
2017-12-13T05:25:17.892Z,80.14
2017-12-13T05:27:46.314Z,79.98
2017-12-13T05:30:14.722Z,80.26
2017-12-13T05:32:43.502Z,80.05
2017-12-13T05:35:11.955Z,79.53
2017-12-13T05:37:40.440Z,80.37
2017-12-13T05:40:08.838Z,80.60
2017-12-13T05:42:37.330Z,79.90
2017-12-13T05:45:05.801Z,79.39
2017-12-13T05:47:34.411Z,79.41
2017-12-13T05:50:03.693Z,78.77
2017-12-13T05:52:32.181Z,78.90
2017-12-13T05:55:00.966Z,78.82
2017-12-13T05:57:29.446Z,79.10
2017-12-13T05:59:57.885Z,78.81
2017-12-13T06:02:28.194Z,78.97
2017-12-13T06:04:56.747Z,79.33
2017-12-13T06:07:26.390Z,79.47
2017-12-13T06:09:55.042Z,79.20
2017-12-13T06:12:24.547Z,78.80
2017-12-13T06:14:53.029Z,78.91
2017-12-13T06:17:21.692Z,78.87
2017-12-13T06:19:50.195Z,78.31
2017-12-13T06:22:18.610Z,78.81
2017-12-13T06:24:47.092Z,78.76
2017-12-13T06:27:15.605Z,78.45
2017-12-13T06:29:44.152Z,77.92
2017-12-13T06:32:12.598Z,77.83
2017-12-13T06:34:41.084Z,77.76
2017-12-13T06:37:09.568Z,77.46
2017-12-13T06:39:38.456Z,77.97
2017-12-13T06:42:06.936Z,77.90
2017-12-13T06:44:35.385Z,77.57
2017-12-13T06:47:03.838Z,77.44
2017-12-13T06:49:32.290Z,77.88
2017-12-13T06:52:01.475Z,77.90
2017-12-13T06:54:30.030Z,78.04
2017-12-13T06:56:58.391Z,77.20
2017-12-13T06:59:26.817Z,77.25
2017-12-13T07:01:56.015Z,77.75
2017-12-13T07:04:24.419Z,77.78
2017-12-13T07:06:53.622Z,77.95
2017-12-13T07:09:22.078Z,77.72
2017-12-13T07:11:50.455Z,78.45
2017-12-13T07:14:19.691Z,77.99
2017-12-13T07:16:48.039Z,77.08
2017-12-13T07:19:16.516Z,77.26
2017-12-13T07:21:44.995Z,77.36
2017-12-13T07:24:13.739Z,76.80
2017-12-13T07:26:42.156Z,76.87
2017-12-13T07:29:10.548Z,76.89
2017-12-13T07:31:39.026Z,76.15
2017-12-13T07:34:07.510Z,75.93
2017-12-13T07:36:35.991Z,76.39
2017-12-13T07:39:04.551Z,76.35
2017-12-13T07:41:33.670Z,75.59
2017-12-13T07:44:02.024Z,75.73
2017-12-13T07:46:30.730Z,75.75
2017-12-13T07:48:59.156Z,75.99
2017-12-13T07:51:27.524Z,75.09
2017-12-13T07:53:56.826Z,74.79
2017-12-13T07:56:25.447Z,74.21
2017-12-13T07:58:53.845Z,73.65
2017-12-13T08:01:22.252Z,72.57
2017-12-13T08:03:50.623Z,71.60
2017-12-13T08:06:19.109Z,71.17
2017-12-13T08:08:47.552Z,69.93
2017-12-13T08:11:16.084Z,71.52
2017-12-13T08:13:44.454Z,72.16
2017-12-13T08:16:13.748Z,72.24
2017-12-13T08:18:42.120Z,72.31
2017-12-13T08:21:10.500Z,69.61
2017-12-13T08:23:38.886Z,66.21
2017-12-13T08:26:08.198Z,66.47
2017-12-13T08:28:37.463Z,67.08
2017-12-13T08:31:06.474Z,67.47
2017-12-13T08:33:34.894Z,66.85
2017-12-13T08:36:03.412Z,65.71
2017-12-13T08:38:31.927Z,61.87
2017-12-13T08:41:00.313Z,57.75
2017-12-13T08:43:38.928Z,56.17
2017-12-13T08:46:07.385Z,55.35
2017-12-13T08:48:35.913Z,52.36
2017-12-13T08:51:04.887Z,50.15
2017-12-13T08:53:33.278Z,52.01
2017-12-13T08:56:01.651Z,50.72
2017-12-13T08:58:29.991Z,55.57
2017-12-13T09:00:58.402Z,54.11
2017-12-13T09:03:26.791Z,54.25
2017-12-13T09:05:56.001Z,53.96
2017-12-13T09:08:25.188Z,56.19
2017-12-13T09:10:54.482Z,55.10
2017-12-13T09:13:23.241Z,57.17
2017-12-13T09:15:51.660Z,57.91
2017-12-13T09:18:20.824Z,59.36
2017-12-13T09:20:49.234Z,62.54
2017-12-13T09:23:17.712Z,63.77
2017-12-13T09:25:46.079Z,64.87
2017-12-13T09:28:14.587Z,64.66
2017-12-13T09:30:43.858Z,64.56
2017-12-13T09:33:12.356Z,64.65
2017-12-13T09:35:40.902Z,62.08
2017-12-13T09:38:12.115Z,61.44
2017-12-13T09:40:40.550Z,59.45
2017-12-13T09:43:09.014Z,59.32
2017-12-13T09:45:37.544Z,56.81
2017-12-13T09:48:05.927Z,57.09
2017-12-13T09:50:34.726Z,55.72
2017-12-13T09:53:03.270Z,57.30
2017-12-13T09:55:32.498Z,56.68
2017-12-13T09:58:01.477Z,58.82
2017-12-13T10:00:29.958Z,56.84
2017-12-13T10:02:58.440Z,57.32
2017-12-13T10:05:27.643Z,55.21
2017-12-13T10:07:56.133Z,53.37
2017-12-13T10:10:24.566Z,53.26
2017-12-13T10:12:53.039Z,53.80
2017-12-13T10:15:21.484Z,54.59
2017-12-13T10:17:50.664Z,54.49
2017-12-13T10:20:19.445Z,54.44
2017-12-13T10:22:47.947Z,55.76
2017-12-13T10:25:17.225Z,56.62
2017-12-13T10:27:45.688Z,58.35
2017-12-13T10:30:14.127Z,60.09
2017-12-13T10:32:42.565Z,60.79
2017-12-13T10:35:11.043Z,62.50
2017-12-13T10:37:39.486Z,60.12
2017-12-13T10:40:08.016Z,60.67
2017-12-13T10:42:36.878Z,61.01
2017-12-13T10:45:05.288Z,59.58
2017-12-13T10:47:49.557Z,60.19
2017-12-13T10:50:18.723Z,60.89
2017-12-13T10:52:47.141Z,61.62
2017-12-13T10:55:16.317Z,60.85
2017-12-13T10:57:44.798Z,61.51
2017-12-13T11:00:13.263Z,61.63
2017-12-13T11:02:41.877Z,62.67
2017-12-13T11:05:11.168Z,65.43
2017-12-13T11:07:39.576Z,65.84
2017-12-13T11:10:09.027Z,65.80
2017-12-13T11:12:37.493Z,64.89
2017-12-13T11:15:05.932Z,65.59
2017-12-13T11:17:34.374Z,66.07
2017-12-13T11:20:02.782Z,64.70
2017-12-13T11:22:31.226Z,65.68
2017-12-13T11:24:59.866Z,65.51
2017-12-13T11:27:28.334Z,65.21
2017-12-13T11:29:56.709Z,64.99
2017-12-13T11:32:25.179Z,64.74
2017-12-13T11:34:53.561Z,64.33
2017-12-13T11:37:22.744Z,63.00
2017-12-13T11:39:51.265Z,63.26
2017-12-13T11:42:19.855Z,62.15
2017-12-13T11:44:49.147Z,63.07
2017-12-13T11:47:19.143Z,64.28
2017-12-13T11:49:47.638Z,65.21
2017-12-13T11:52:16.111Z,65.72
2017-12-13T11:54:47.575Z,65.69
2017-12-13T11:57:16.757Z,65.82
2017-12-13T11:59:45.217Z,66.29
2017-12-13T12:02:13.600Z,66.91
2017-12-13T12:04:42.066Z,66.79
2017-12-13T12:07:10.785Z,66.97
2017-12-13T12:09:39.483Z,67.09
2017-12-13T12:12:08.780Z,67.35
2017-12-13T12:14:38.091Z,67.15
2017-12-13T12:17:07.277Z,67.95
2017-12-13T12:19:36.171Z,68.41
2017-12-13T12:22:04.690Z,68.60
2017-12-13T12:24:34.364Z,69.42
2017-12-13T12:27:02.818Z,69.26
2017-12-13T12:29:31.324Z,69.52
2017-12-13T12:32:00.096Z,69.94
2017-12-13T12:34:28.559Z,71.24
2017-12-13T12:36:56.950Z,71.12
2017-12-13T12:39:26.282Z,74.01
2017-12-13T12:41:54.725Z,74.71
2017-12-13T12:44:23.152Z,76.90
2017-12-13T12:46:52.340Z,78.53
2017-12-13T12:49:20.814Z,78.34
2017-12-13T12:51:49.268Z,79.01
2017-12-13T12:54:18.289Z,78.59
2017-12-13T12:56:46.681Z,79.10
2017-12-13T12:59:15.137Z,79.21
2017-12-13T13:01:43.574Z,79.90
2017-12-13T13:04:12.022Z,79.47
2017-12-13T13:06:41.216Z,79.81
2017-12-13T13:09:09.796Z,79.38
2017-12-13T13:11:38.283Z,79.10
2017-12-13T13:14:07.478Z,78.81
2017-12-13T13:16:36.227Z,78.78
2017-12-13T13:19:04.617Z,79.12
2017-12-13T13:21:33.942Z,79.22
2017-12-13T13:24:02.427Z,79.18
2017-12-13T13:26:30.909Z,78.84
2017-12-13T13:28:59.370Z,80.05
2017-12-13T13:31:27.768Z,79.73
2017-12-13T13:33:56.170Z,80.20
2017-12-13T13:36:24.542Z,80.83
2017-12-13T13:38:53.065Z,80.81
2017-12-13T13:41:21.500Z,80.61
2017-12-13T13:43:50.620Z,80.33
2017-12-13T13:46:19.797Z,80.95
2017-12-13T13:48:51.107Z,80.15
2017-12-13T13:51:31.333Z,80.58
2017-12-13T13:53:59.753Z,81.29
2017-12-13T13:56:28.196Z,81.00
2017-12-13T13:58:57.079Z,81.05
2017-12-13T14:01:26.314Z,80.74
2017-12-13T14:03:54.729Z,81.65
2017-12-13T14:06:23.214Z,81.72
2017-12-13T14:08:51.599Z,82.32
2017-12-13T14:11:20.794Z,82.58
2017-12-13T14:13:49.192Z,83.15
2017-12-13T14:16:18.453Z,83.60
2017-12-13T14:18:46.921Z,82.73
2017-12-13T14:21:15.564Z,82.90
2017-12-13T14:23:43.912Z,82.67
2017-12-13T14:26:12.278Z,82.86
2017-12-13T14:28:40.710Z,83.33
2017-12-13T14:31:09.047Z,82.84
2017-12-13T14:33:37.430Z,83.28
2017-12-13T14:36:05.880Z,83.39
2017-12-13T14:38:34.289Z,83.72
2017-12-13T14:41:02.668Z,83.85
2017-12-13T14:43:31.445Z,83.79
2017-12-13T14:45:59.837Z,84.61
2017-12-13T14:48:28.307Z,84.21
2017-12-13T14:50:56.817Z,84.52
2017-12-13T14:53:25.892Z,84.47
2017-12-13T14:55:54.329Z,83.86
2017-12-13T14:58:22.861Z,83.47
2017-12-13T15:00:51.364Z,83.03
2017-12-13T15:03:20.515Z,83.44
2017-12-13T15:05:48.958Z,83.71
2017-12-13T15:08:33.173Z,83.78
2017-12-13T15:11:01.627Z,83.94
2017-12-13T15:13:29.975Z,84.21
2017-12-13T15:15:58.457Z,84.46
2017-12-13T15:18:26.873Z,84.70
2017-12-13T15:20:55.345Z,84.47
2017-12-13T15:23:23.678Z,84.61
2017-12-13T15:25:53.168Z,84.46
2017-12-13T15:28:21.658Z,83.47
2017-12-13T15:30:50.982Z,83.87
2017-12-13T15:33:19.455Z,84.05
2017-12-13T15:35:48.627Z,84.51
2017-12-13T15:38:17.007Z,84.98
2017-12-13T15:40:45.655Z,85.25
2017-12-13T15:43:14.110Z,85.38
2017-12-13T15:45:42.554Z,84.92
2017-12-13T15:48:11.238Z,84.93
2017-12-13T15:50:41.373Z,85.34
2017-12-13T15:53:09.831Z,85.08
2017-12-13T15:55:39.173Z,85.05
2017-12-13T15:58:08.380Z,84.54
2017-12-13T16:00:37.645Z,85.04
2017-12-13T16:03:06.018Z,85.02
2017-12-13T16:05:34.440Z,84.42
2017-12-13T16:08:02.824Z,84.74
2017-12-13T16:10:31.668Z,84.70
2017-12-13T16:13:00.048Z,84.41
2017-12-13T16:15:28.532Z,84.38
2017-12-13T16:17:57.752Z,84.78
2017-12-13T16:20:26.177Z,85.71
2017-12-13T16:22:54.567Z,85.38
2017-12-13T16:25:22.933Z,85.11
2017-12-13T16:27:51.320Z,84.47
2017-12-13T16:30:19.618Z,85.09
2017-12-13T16:32:48.420Z,85.23
2017-12-13T16:35:36.413Z,85.36
2017-12-13T16:38:04.771Z,85.22
2017-12-13T16:40:33.238Z,84.59
2017-12-13T16:43:02.518Z,85.36
2017-12-13T16:45:30.933Z,86.33
2017-12-13T16:47:59.488Z,86.83
2017-12-13T16:50:27.858Z,85.86
2017-12-13T16:52:56.748Z,85.73
2017-12-13T16:55:25.149Z,85.96
2017-12-13T16:57:54.436Z,85.35
2017-12-13T17:00:23.015Z,85.93
2017-12-13T17:02:51.495Z,86.18
2017-12-13T17:05:19.979Z,85.80
2017-12-13T17:07:48.488Z,85.58
2017-12-13T17:10:17.020Z,86.04
2017-12-13T17:12:45.525Z,85.79
2017-12-13T17:15:14.515Z,85.35
2017-12-13T17:17:43.052Z,85.03
2017-12-13T17:20:11.494Z,86.10
2017-12-13T17:22:39.873Z,85.35
2017-12-13T17:25:08.249Z,85.49
2017-12-13T17:27:36.720Z,85.86
2017-12-13T17:30:05.293Z,86.17
2017-12-13T17:32:33.788Z,85.99
2017-12-13T17:35:02.195Z,85.51
2017-12-13T17:37:30.876Z,85.29
2017-12-13T17:39:59.391Z,85.35
2017-12-13T17:42:28.639Z,85.61
2017-12-13T17:44:57.120Z,85.41
2017-12-13T17:47:25.593Z,85.13
2017-12-13T17:49:54.188Z,85.81
2017-12-13T17:52:22.686Z,85.92
2017-12-13T17:54:51.963Z,86.17
2017-12-13T17:57:20.356Z,85.67
2017-12-13T17:59:49.541Z,85.51
2017-12-13T18:02:17.888Z,85.38
2017-12-13T18:04:46.248Z,85.50
2017-12-13T18:07:14.788Z,85.86
2017-12-13T18:09:43.271Z,85.08
2017-12-13T18:12:11.671Z,85.43
2017-12-13T18:14:40.890Z,85.24
2017-12-13T18:17:09.431Z,85.28
2017-12-13T18:19:37.883Z,85.36
2017-12-13T18:22:06.755Z,85.02
2017-12-13T18:24:35.189Z,85.11
2017-12-13T18:27:12.292Z,85.71
2017-12-13T18:29:41.506Z,85.37
2017-12-13T18:32:09.872Z,85.03
2017-12-13T18:34:39.128Z,84.68
2017-12-13T18:37:08.346Z,85.22
2017-12-13T18:39:36.780Z,85.34
2017-12-13T18:42:05.498Z,84.60
2017-12-13T18:44:33.894Z,85.94
2017-12-13T18:47:02.478Z,85.80
2017-12-13T18:49:30.957Z,85.65
2017-12-13T18:51:59.445Z,85.49
2017-12-13T18:54:27.841Z,85.92
2017-12-13T18:56:57.022Z,86.16
2017-12-13T18:59:25.509Z,85.54
2017-12-13T19:01:53.905Z,85.41
2017-12-13T19:04:23.400Z,86.07
2017-12-13T19:06:51.888Z,86.58
2017-12-13T19:09:21.084Z,85.95
2017-12-13T19:11:49.540Z,86.27
2017-12-13T19:14:18.002Z,85.47
2017-12-13T19:16:52.463Z,85.27
2017-12-13T19:19:21.046Z,85.00
2017-12-13T19:21:49.492Z,86.16
2017-12-13T19:24:18.100Z,85.83
2017-12-13T19:26:46.688Z,85.86
2017-12-13T19:29:15.271Z,86.13
2017-12-13T19:31:43.738Z,85.59
2017-12-13T19:34:12.233Z,85.20
2017-12-13T19:36:40.822Z,84.84
2017-12-13T19:39:09.199Z,85.10
2017-12-13T19:41:38.405Z,86.12
2017-12-13T19:44:06.770Z,86.97
2017-12-13T19:46:35.566Z,85.97
2017-12-13T19:49:03.938Z,85.37
2017-12-13T19:51:32.282Z,85.14
2017-12-13T19:54:00.647Z,84.82
2017-12-13T19:56:28.983Z,85.09
2017-12-13T19:58:57.299Z,85.25
2017-12-13T20:01:25.674Z,85.62
2017-12-13T20:03:54.830Z,84.95
2017-12-13T20:06:23.141Z,85.60
2017-12-13T20:08:52.448Z,85.02
2017-12-13T20:11:20.762Z,85.36
2017-12-13T20:13:49.122Z,85.06
2017-12-13T20:16:17.534Z,85.31
2017-12-13T20:18:45.859Z,85.28
2017-12-13T20:21:14.953Z,85.14
2017-12-13T20:23:44.131Z,84.76
2017-12-13T20:26:12.453Z,84.62
2017-12-13T20:28:40.787Z,84.88
2017-12-13T20:31:09.588Z,84.93
2017-12-13T20:33:38.291Z,84.54
2017-12-13T20:36:06.795Z,84.71
2017-12-13T20:38:35.216Z,84.41
2017-12-13T20:41:03.532Z,84.08
2017-12-13T20:43:32.129Z,84.38
2017-12-13T20:46:00.590Z,84.16
2017-12-13T20:48:29.799Z,84.12
2017-12-13T20:50:58.196Z,84.08
2017-12-13T20:53:27.128Z,84.31
2017-12-13T20:55:55.607Z,84.04
2017-12-13T20:58:24.027Z,83.59
2017-12-13T21:00:53.121Z,83.40
2017-12-13T21:03:22.248Z,83.02
2017-12-13T21:05:50.607Z,83.40
2017-12-13T21:08:18.964Z,82.84
2017-12-13T21:10:48.079Z,82.86
2017-12-13T21:13:16.449Z,82.52
2017-12-13T21:15:45.803Z,83.80
2017-12-13T21:18:14.111Z,83.14
2017-12-13T21:20:42.418Z,83.75
2017-12-13T21:23:10.792Z,83.95
2017-12-13T21:25:39.893Z,83.69
2017-12-13T21:28:08.234Z,83.48
2017-12-13T21:30:36.620Z,84.07
2017-12-13T21:33:04.974Z,83.32
2017-12-13T21:35:33.339Z,83.26
2017-12-13T21:38:01.773Z,83.59
2017-12-13T21:40:30.891Z,83.86
2017-12-13T21:42:59.190Z,83.54
2017-12-13T21:45:27.606Z,82.48
2017-12-13T21:47:55.958Z,82.42
2017-12-13T21:50:24.296Z,81.97
2017-12-13T21:52:52.666Z,82.59
2017-12-13T21:55:21.760Z,82.25
2017-12-13T21:57:50.858Z,83.12
2017-12-13T22:00:20.231Z,82.00
2017-12-13T22:02:48.559Z,82.23
2017-12-13T22:05:28.775Z,82.08
2017-12-13T22:07:57.075Z,81.72
2017-12-13T22:10:26.126Z,81.53
2017-12-13T22:12:54.484Z,81.74
2017-12-13T22:15:22.795Z,81.38
2017-12-13T22:17:51.093Z,80.95
2017-12-13T22:20:19.646Z,81.85
2017-12-13T22:22:47.985Z,81.35
2017-12-13T22:25:16.373Z,81.93
2017-12-13T22:27:44.689Z,81.61
2017-12-13T22:30:13.842Z,81.49
2017-12-13T22:32:42.197Z,81.28
2017-12-13T22:35:10.526Z,81.14
2017-12-13T22:37:38.834Z,81.24
2017-12-13T22:40:07.140Z,81.37
2017-12-13T22:45:33.494Z,82.33
2017-12-13T22:48:02.189Z,82.11
2017-12-13T22:50:30.498Z,82.35
2017-12-13T22:52:58.799Z,82.29
2017-12-13T22:55:28.066Z,82.69
2017-12-13T22:57:56.415Z,82.15
2017-12-13T23:00:37.326Z,82.29
2017-12-13T23:03:05.918Z,81.41
2017-12-13T23:05:34.278Z,81.40
2017-12-13T23:08:02.628Z,81.90
2017-12-13T23:10:32.446Z,83.09
2017-12-13T23:13:00.785Z,82.98
2017-12-13T23:15:29.122Z,83.18
2017-12-13T23:17:57.440Z,83.07
2017-12-13T23:20:25.757Z,83.45
2017-12-13T23:22:55.747Z,83.33
2017-12-13T23:25:24.068Z,83.71
2017-12-13T23:27:52.486Z,84.22
2017-12-13T23:30:20.834Z,83.50
2017-12-13T23:32:49.146Z,84.39
2017-12-13T23:35:17.448Z,84.00
2017-12-13T23:37:46.181Z,84.18
2017-12-13T23:40:14.543Z,84.10
2017-12-13T23:42:42.846Z,83.19
2017-12-13T23:45:11.266Z,83.60
2017-12-13T23:47:40.331Z,84.60
2017-12-13T23:50:08.680Z,84.29
2017-12-13T23:52:37.092Z,84.57
2017-12-13T23:55:05.409Z,84.47
2017-12-13T23:57:33.715Z,85.19
